Judi M. — WCX8376 — position and weather

sailwx.info

Track history (hours):
 
Tides and Currents Weather Stations Pressure Air Temp Water Temp Dewpoint Dewpoint Depression Visibility Wind Speed Wind Dir Waves Ship Positions

Judi M.

Owner: MANKE TUG & BARGE CO INC, SHELTON, WA. More information available from US FCC via Universal Licensing System and Coast Guard Vessel Documentation Center.

Last reported at 2014-Oct-31 14:19 UTC. Time now 2014-Nov-01 05:37 UTC.
Position N 49°25' W 123°27'.

Length 29 m; draft 4 m.

Type: Tow > 200 m length. MMSI: 366740920.

Date/timePositionNaut miles runAvg speedWind from/ knotsBaromVisibWave heightAir tempDewpointWater temp
2014-Oct-31 14:19N 49°25' W 123°27'6 7.4
2014-Oct-31 13:33N 49°20' W 123°27'9 8.7
2014-Oct-31 12:33N 49°11' W 123°27'9 8.7
2014-Oct-31 11:33N 49°04' W 123°20'8 8.2
2014-Oct-31 10:33N 48°58' W 123°11'8 8.1
2014-Oct-31 09:32N 48°53' W 123°01'8 8.3
2014-Oct-31 08:31N 48°47' W 122°51'7 7.8
2014-Oct-31 07:33N 48°42' W 122°43'7 7.5
2014-Oct-31 06:33N 48°35' W 122°45'8 8.2
2014-Oct-31 05:33N 48°27' W 122°44'18 7.7
2014-Oct-31 03:16N 48°09' W 122°42'6 8.0
2014-Oct-31 02:33N 48°04' W 122°38'6 8.9
2014-Oct-31 01:54N 47°59' W 122°34'3 8.8
2014-Oct-31 01:33N 47°57' W 122°31'1 8.6
2014-Oct-31 01:29N 47°56' W 122°30'8 9.0
2014-Oct-31 00:33N 47°49' W 122°26'1 8.5
2014-Oct-31 00:29N 47°48' W 122°26'8 9.0
2014-Oct-30 23:33N 47°40' W 122°27'1 9.1
2014-Oct-30 23:29N 47°39' W 122°27'6 6.2
2014-Oct-30 22:33N 47°34' W 122°22'0 0.0
2014-Oct-30 22:29N 47°34' W 122°22'0 0.0
2014-Oct-30 21:34N 47°34' W 122°22'0 0.0
2014-Oct-30 21:33N 47°34' W 122°22'0 0.0
2014-Oct-30 20:34N 47°34' W 122°22'0 0.0
2014-Oct-30 20:33N 47°34' W 122°22'0 0.0
2014-Oct-30 19:33N 47°34' W 122°22'0 0.0
2014-Oct-30 19:33N 47°34' W 122°22'0 0.0
2014-Oct-30 18:33N 47°34' W 122°22'0 0.0
2014-Oct-30 18:33N 47°34' W 122°22'0 0.0
2014-Oct-30 17:33N 47°34' W 122°22'0 0.0
2014-Oct-30 17:33N 47°34' W 122°22'0 0.0
2014-Oct-30 16:33N 47°34' W 122°22'0 0.0
2014-Oct-30 16:33N 47°34' W 122°22'0 0.0
2014-Oct-30 15:33N 47°34' W 122°22'0 0.0
2014-Oct-30 15:33N 47°34' W 122°22'0 0.0
2014-Oct-30 14:33N 47°34' W 122°22'0 0.0
2014-Oct-30 14:33N 47°34' W 122°22'3 2.6
2014-Oct-30 13:33N 47°36' W 122°24'0 7.5
2014-Oct-30 13:33N 47°36' W 122°24'7 6.7
2014-Oct-30 12:33N 47°43' W 122°28'0 7.8
2014-Oct-30 12:33N 47°43' W 122°28'7 7.4
2014-Oct-30 11:33N 47°50' W 122°28'0 7.2
2014-Oct-30 11:33N 47°50' W 122°28'6 6.3
2014-Oct-30 10:33N 47°56' W 122°32'0 6.1
2014-Oct-30 10:32N 47°56' W 122°32'5 5.5
2014-Oct-30 09:33N 47°60' W 122°38'5 5.2
2014-Oct-30 08:33N 48°05' W 122°40'4 4.2
2014-Oct-30 07:31N 48°08' W 122°44'4 3.9
2014-Oct-30 06:28N 48°11' W 122°49'5 6.0
2014-Oct-30 05:33N 48°11' W 122°57'7 6.8
2014-Oct-30 04:33N 48°12' W 123°07'8 8.1
2014-Oct-30 03:33N 48°08' W 123°18'6 6.4
2014-Oct-30 02:33N 48°08' W 123°28'0 0.1
2014-Oct-30 01:33N 48°08' W 123°28'0 0.0
2014-Oct-30 00:33N 48°08' W 123°28'0 0.0
2014-Oct-29 23:33N 48°08' W 123°28'0 0.0
2014-Oct-29 22:33N 48°08' W 123°28'0 0.0
2014-Oct-29 21:33N 48°08' W 123°28'0 0.0
2014-Oct-29 20:33N 48°08' W 123°28'0 0.0
2014-Oct-29 19:33N 48°08' W 123°28'0 0.0
2014-Oct-29 18:33N 48°08' W 123°28'0 0.0
2014-Oct-29 17:33N 48°08' W 123°28'0 0.0
2014-Oct-29 16:33N 48°08' W 123°28'0 0.0
2014-Oct-29 15:33N 48°08' W 123°28'0 0.0
2014-Oct-29 14:33N 48°08' W 123°28'1 0.8
2014-Oct-29 13:33N 48°08' W 123°27'4 3.9
2014-Oct-29 12:33N 48°08' W 123°21'6 6.5
2014-Oct-29 11:33N 48°11' W 123°12'7 7.0
2014-Oct-29 10:32N 48°13' W 123°02'13 9.1
2014-Oct-29 09:06N 48°09' W 122°43'610.2
2014-Oct-29 08:32N 48°04' W 122°38'310.7
2014-Oct-29 08:14N 48°01' W 122°37'710.3
2014-Oct-29 07:33N 47°56' W 122°30'1 8.8
2014-Oct-29 07:29N 47°55' W 122°29'9 9.5
2014-Oct-29 06:33N 47°47' W 122°26'1 8.7
2014-Oct-29 06:29N 47°46' W 122°26'3 9.6
2014-Oct-29 06:09N 47°43' W 122°26'5 9.1
2014-Oct-29 05:33N 47°38' W 122°26'4 4.3
2014-Oct-29 04:33N 47°34' W 122°22'0 0.0
2014-Oct-29 04:28N 47°34' W 122°22'0 0.0
2014-Oct-29 03:33N 47°34' W 122°22'0 0.0
2014-Oct-29 03:28N 47°34' W 122°22'0 0.0
2014-Oct-29 02:33N 47°34' W 122°22'0 0.0
2014-Oct-29 02:29N 47°34' W 122°22'0 0.0
2014-Oct-29 01:33N 47°34' W 122°22'0 0.0
2014-Oct-29 01:28N 47°34' W 122°22'0 0.0
2014-Oct-29 00:33N 47°34' W 122°22'0 0.0
2014-Oct-29 00:28N 47°34' W 122°22'0 0.0
2014-Oct-28 23:17N 47°34' W 122°22'0 0.0
2014-Oct-28 23:16N 47°34' W 122°22'0 0.0
2014-Oct-28 21:59N 47°34' W 122°22'0 0.0
2014-Oct-28 21:33N 47°34' W 122°22'0 0.0
2014-Oct-28 21:29N 47°34' W 122°22'0 0.0
2014-Oct-28 20:33N 47°34' W 122°22'0 0.0
2014-Oct-28 20:28N 47°34' W 122°22'0 0.0
2014-Oct-28 19:33N 47°34' W 122°22'0 0.0
2014-Oct-28 19:28N 47°34' W 122°22'0 0.0
2014-Oct-28 18:33N 47°34' W 122°22'0 0.0
2014-Oct-28 18:31N 47°34' W 122°22'0 0.0
2014-Oct-28 16:54N 47°34' W 122°22'0 0.0
2014-Oct-28 16:33N 47°34' W 122°22'0 0.0
2014-Oct-28 16:30N 47°34' W 122°22'0 0.0
2014-Oct-28 15:33N 47°34' W 122°22'0 0.0
2014-Oct-28 15:30N 47°34' W 122°22'0 0.0
2014-Oct-28 14:33N 47°34' W 122°22'0 0.0
2014-Oct-28 14:29N 47°34' W 122°22'0 0.0
2014-Oct-28 13:33N 47°34' W 122°22'0 0.0
2014-Oct-28 13:29N 47°34' W 122°22'0 0.0
2014-Oct-28 12:33N 47°34' W 122°22'0 0.0
2014-Oct-28 12:29N 47°34' W 122°22'0 0.0
2014-Oct-28 11:33N 47°34' W 122°22'0 0.0
2014-Oct-28 11:29N 47°34' W 122°22'0 0.0
2014-Oct-28 10:33N 47°34' W 122°22'0 0.0
2014-Oct-28 10:29N 47°34' W 122°22'0 0.0
2014-Oct-28 09:33N 47°34' W 122°22'0 0.0
2014-Oct-28 09:29N 47°34' W 122°22'0 0.0
2014-Oct-28 08:33N 47°34' W 122°22'0 0.0
2014-Oct-28 08:29N 47°34' W 122°22'0 0.0
2014-Oct-28 07:33N 47°34' W 122°22'0 0.0
2014-Oct-28 07:29N 47°34' W 122°22'0 0.0
2014-Oct-28 06:33N 47°34' W 122°22'0 0.0
2014-Oct-28 06:28N 47°34' W 122°22'0 0.0
2014-Oct-28 06:23N 47°34' W 122°22'0 0.0
2014-Oct-28 05:33N 47°34' W 122°22'0 0.0
2014-Oct-28 04:33N 47°34' W 122°22'0 0.0
2014-Oct-28 04:28N 47°34' W 122°22'0 0.0
2014-Oct-28 03:34N 47°34' W 122°22'0 0.0
2014-Oct-28 03:33N 47°34' W 122°22'0 0.0
2014-Oct-28 02:33N 47°34' W 122°22'0 0.0
2014-Oct-28 02:33N 47°34' W 122°22'0 0.0
2014-Oct-28 01:33N 47°34' W 122°22'0 0.0
2014-Oct-28 01:33N 47°34' W 122°22'0 0.0
2014-Oct-28 00:33N 47°34' W 122°22'0 0.0
2014-Oct-28 00:33N 47°34' W 122°22'0 0.0
2014-Oct-27 23:33N 47°34' W 122°22'0 0.0
2014-Oct-27 23:33N 47°34' W 122°22'0 0.0
2014-Oct-27 22:36N 47°34' W 122°22'0 0.0
2014-Oct-27 22:33N 47°34' W 122°22'0 0.0
2014-Oct-27 21:33N 47°34' W 122°22'0 0.0
2014-Oct-27 21:31N 47°34' W 122°22'0 0.0
2014-Oct-27 20:33N 47°34' W 122°22'0 0.0
2014-Oct-27 20:31N 47°34' W 122°22'0 0.0
2014-Oct-27 19:33N 47°34' W 122°22'0 0.0
2014-Oct-27 19:30N 47°34' W 122°22'0 0.0
2014-Oct-27 18:33N 47°34' W 122°22'0 0.0
2014-Oct-27 18:30N 47°34' W 122°22'0 0.0
2014-Oct-27 17:33N 47°34' W 122°22'0 0.0
2014-Oct-27 17:31N 47°34' W 122°22'0 0.0
2014-Oct-27 16:33N 47°34' W 122°22'0 0.0
2014-Oct-27 16:31N 47°34' W 122°22'0 0.0
2014-Oct-27 15:33N 47°34' W 122°22'0 0.0
2014-Oct-27 15:30N 47°34' W 122°22'0 0.0
2014-Oct-27 14:33N 47°34' W 122°22'0 0.0
2014-Oct-27 14:30N 47°34' W 122°22'0 0.0
2014-Oct-27 13:33N 47°34' W 122°22'0 0.0
2014-Oct-27 13:30N 47°34' W 122°22'1 1.5
2014-Oct-27 12:34N 47°36' W 122°22'0 3.4
2014-Oct-27 12:30N 47°36' W 122°23'6 6.3
2014-Oct-27 11:34N 47°40' W 122°28'0 6.7
2014-Oct-27 11:30N 47°41' W 122°28'7 7.5
2014-Oct-27 10:33N 47°48' W 122°28'1 7.5
2014-Oct-27 10:29N 47°48' W 122°28'7 7.4
2014-Oct-27 09:34N 47°55' W 122°30'0 6.7
2014-Oct-27 09:30N 47°55' W 122°31'6 6.8
2014-Oct-27 08:33N 47°60' W 122°38'8 5.7
2014-Oct-27 07:05N 48°07' W 122°43'4 4.3
2014-Oct-27 06:07N 48°10' W 122°47'8 4.8
2014-Oct-27 04:24N 48°16' W 122°56'6 7.3
2014-Oct-27 03:33N 48°22' W 123°01'8 7.6
2014-Oct-27 02:33N 48°27' W 123°08'7 7.2
2014-Oct-27 01:33N 48°34' W 123°13'7 7.0
2014-Oct-27 00:33N 48°41' W 123°16'7 7.2
2014-Oct-26 23:33N 48°47' W 123°20'7 6.6
2014-Oct-26 22:30N 48°53' W 123°27'7 7.3
2014-Oct-26 21:31N 48°57' W 123°36'5 5.0
2014-Oct-26 20:32N 48°52' W 123°39'0 0.0
2014-Oct-26 19:32N 48°52' W 123°39'0 0.0
2014-Oct-26 18:33N 48°52' W 123°39'0 0.0
2014-Oct-26 17:34N 48°52' W 123°39'0 0.0
2014-Oct-26 16:33N 48°52' W 123°39'0 0.0
2014-Oct-26 15:33N 48°52' W 123°39'0 0.0
2014-Oct-26 14:34N 48°52' W 123°39'0 0.0
2014-Oct-26 13:33N 48°52' W 123°39'0 0.0
2014-Oct-26 12:34N 48°52' W 123°39'2 1.9
2014-Oct-26 11:33N 48°54' W 123°39'4 4.2
2014-Oct-26 10:33N 48°56' W 123°33'7 7.0
2014-Oct-26 09:33N 48°51' W 123°24'6 6.2
2014-Oct-26 08:33N 48°46' W 123°20'7 7.1
2014-Oct-26 07:33N 48°40' W 123°14'7 6.6
2014-Oct-26 06:33N 48°33' W 123°12'6 6.1
2014-Oct-26 05:34N 48°28' W 123°07'8 7.5
2014-Oct-26 04:31N 48°22' W 122°60'7 7.3
2014-Oct-26 03:33N 48°16' W 122°54'18 8.8
2014-Oct-26 01:33N 48°02' W 122°37'9 8.8
2014-Oct-26 00:33N 47°56' W 122°29'9 8.5
2014-Oct-25 23:33N 47°47' W 122°26'2 7.9
2014-Oct-25 23:19N 47°45' W 122°26'6 8.0
2014-Oct-25 22:33N 47°39' W 122°27'0 7.5
2014-Oct-25 22:29N 47°39' W 122°27'6 6.1
2014-Oct-25 21:33N 47°34' W 122°22'0 0.0
2014-Oct-25 21:29N 47°34' W 122°22'0 0.0
2014-Oct-25 20:34N 47°34' W 122°22'0 0.0
2014-Oct-25 20:29N 47°34' W 122°22'0 0.0
2014-Oct-25 19:33N 47°34' W 122°22'0 0.0
2014-Oct-25 19:29N 47°34' W 122°22'0 0.0
2014-Oct-25 18:34N 47°34' W 122°22'0 0.0
2014-Oct-25 18:29N 47°34' W 122°22'0 0.0
2014-Oct-25 17:26N 47°34' W 122°22'0 0.0
2014-Oct-25 17:24N 47°34' W 122°22'0 0.0
2014-Oct-25 16:32N 47°34' W 122°22'0 0.0
2014-Oct-25 16:28N 47°34' W 122°22'0 0.0
2014-Oct-25 15:33N 47°34' W 122°22'0 0.0
2014-Oct-25 15:29N 47°34' W 122°22'0 0.0
2014-Oct-25 14:33N 47°34' W 122°22'0 0.0
2014-Oct-25 14:33N 47°34' W 122°22'0 0.0
2014-Oct-25 13:33N 47°34' W 122°22'0 0.0
2014-Oct-25 13:33N 47°34' W 122°22'0 0.0
2014-Oct-25 12:33N 47°34' W 122°22'0 0.0
2014-Oct-25 12:32N 47°34' W 122°22'0 0.0
2014-Oct-25 11:33N 47°34' W 122°22'0 0.0
2014-Oct-25 10:33N 47°34' W 122°22'0 0.0
2014-Oct-25 10:33N 47°34' W 122°22'0 0.0
2014-Oct-25 09:33N 47°34' W 122°22'0 0.0
2014-Oct-25 09:33N 47°34' W 122°22'0 0.0
2014-Oct-25 08:33N 47°34' W 122°22'0 0.0
2014-Oct-25 08:33N 47°34' W 122°22'0 0.0
2014-Oct-25 07:33N 47°34' W 122°22'0 0.0
2014-Oct-25 07:33N 47°34' W 122°22'0 0.0
2014-Oct-25 06:33N 47°34' W 122°22'0 0.0
2014-Oct-25 06:33N 47°34' W 122°22'0 0.0
2014-Oct-25 05:57N 47°34' W 122°22'0 0.0
2014-Oct-25 05:33N 47°34' W 122°22'1 1.3
2014-Oct-25 04:33N 47°36' W 122°22'0 0.3
2014-Oct-25 04:32N 47°36' W 122°22'5 5.1
2014-Oct-25 03:33N 47°39' W 122°28'0 4.6
2014-Oct-25 03:32N 47°39' W 122°28'6 6.0
2014-Oct-25 02:33N 47°45' W 122°27'0 5.1
2014-Oct-25 02:32N 47°45' W 122°27'6 6.3
2014-Oct-25 01:33N 47°51' W 122°29'0 5.6
2014-Oct-25 01:32N 47°51' W 122°29'6 6.5
2014-Oct-25 00:33N 47°56' W 122°33'8 7.4
2014-Oct-24 23:27N 48°03' W 122°39'3 0.3
2014-Oct-24 11:32N 48°07' W 122°39'3 6.1
2014-Oct-24 11:02N 48°04' W 122°38'3 6.1
2014-Oct-24 10:33N 48°01' W 122°37'1 5.3
2014-Oct-24 10:17N 47°60' W 122°36'4 5.1
2014-Oct-24 09:33N 47°57' W 122°32'0 5.3
2014-Oct-24 09:28N 47°57' W 122°31'6 6.9
2014-Oct-24 08:33N 47°51' W 122°27'8 8.0
2014-Oct-24 07:33N 47°43' W 122°26'7 7.0
2014-Oct-24 06:33N 47°37' W 122°22'1 6.6
2014-Oct-24 06:22N 47°35' W 122°22'1 2.8
2014-Oct-24 06:02N 47°34' W 122°22'  
2014-Oct-21 22:43N 47°34' W 122°22'0 0.0
2014-Oct-21 22:33N 47°34' W 122°22'0 0.0
2014-Oct-21 22:32N 47°34' W 122°22'2 1.6
2014-Oct-21 21:33N 47°36' W 122°22'0 2.5
2014-Oct-21 21:31N 47°36' W 122°22'6 6.2
2014-Oct-21 20:33N 47°41' W 122°28'0 7.4
2014-Oct-21 20:31N 47°41' W 122°28'7 7.0
2014-Oct-21 19:33N 47°48' W 122°27'0 6.7
2014-Oct-21 19:31N 47°48' W 122°27'7 7.1
2014-Oct-21 18:33N 47°54' W 122°30'0 6.6
2014-Oct-21 18:30N 47°55' W 122°30'7 6.8
2014-Oct-21 17:33N 47°59' W 122°37'1 6.3
2014-Oct-21 17:26N 47°60' W 122°38'5 6.0
2014-Oct-21 16:32N 48°05' W 122°40'7 5.0
2014-Oct-21 15:14N 48°10' W 122°46'4 5.3
2014-Oct-21 14:26N 48°14' W 122°49'  
Track history (hours):
 
Tides and Currents Weather Stations Pressure Air Temp Water Temp Dewpoint Dewpoint Depression Visibility Wind Speed Wind Dir Waves Ship Positions

Judi M.

Owner: MANKE TUG & BARGE CO INC, SHELTON, WA. More information available from US FCC via Universal Licensing System and Coast Guard Vessel Documentation Center.

Last reported at 2014-Oct-31 14:19 UTC. Time now 2014-Nov-01 05:37 UTC.
Position N 49°25' W 123°27'.

Length 29 m; draft 4 m.

Type: Tow > 200 m length. MMSI: 366740920.

Date/timePositionNaut miles runAvg speedWind from/ knotsBaromVisibWave heightAir tempDewpointWater temp
2014-Oct-31 14:19N 49°25' W 123°27'6 7.4
2014-Oct-31 13:33N 49°20' W 123°27'9 8.7
2014-Oct-31 12:33N 49°11' W 123°27'9 8.7
2014-Oct-31 11:33N 49°04' W 123°20'8 8.2
2014-Oct-31 10:33N 48°58' W 123°11'8 8.1
2014-Oct-31 09:32N 48°53' W 123°01'8 8.3
2014-Oct-31 08:31N 48°47' W 122°51'7 7.8
2014-Oct-31 07:33N 48°42' W 122°43'7 7.5
2014-Oct-31 06:33N 48°35' W 122°45'8 8.2
2014-Oct-31 05:33N 48°27' W 122°44'18 7.7
2014-Oct-31 03:16N 48°09' W 122°42'6 8.0
2014-Oct-31 02:33N 48°04' W 122°38'6 8.9
2014-Oct-31 01:54N 47°59' W 122°34'3 8.8
2014-Oct-31 01:33N 47°57' W 122°31'1 8.6
2014-Oct-31 01:29N 47°56' W 122°30'8 9.0
2014-Oct-31 00:33N 47°49' W 122°26'1 8.5
2014-Oct-31 00:29N 47°48' W 122°26'8 9.0
2014-Oct-30 23:33N 47°40' W 122°27'1 9.1
2014-Oct-30 23:29N 47°39' W 122°27'6 6.2
2014-Oct-30 22:33N 47°34' W 122°22'0 0.0
2014-Oct-30 22:29N 47°34' W 122°22'0 0.0
2014-Oct-30 21:34N 47°34' W 122°22'0 0.0
2014-Oct-30 21:33N 47°34' W 122°22'0 0.0
2014-Oct-30 20:34N 47°34' W 122°22'0 0.0
2014-Oct-30 20:33N 47°34' W 122°22'0 0.0
2014-Oct-30 19:33N 47°34' W 122°22'0 0.0
2014-Oct-30 19:33N 47°34' W 122°22'0 0.0
2014-Oct-30 18:33N 47°34' W 122°22'0 0.0
2014-Oct-30 18:33N 47°34' W 122°22'0 0.0
2014-Oct-30 17:33N 47°34' W 122°22'0 0.0
2014-Oct-30 17:33N 47°34' W 122°22'0 0.0
2014-Oct-30 16:33N 47°34' W 122°22'0 0.0
2014-Oct-30 16:33N 47°34' W 122°22'0 0.0
2014-Oct-30 15:33N 47°34' W 122°22'0 0.0
2014-Oct-30 15:33N 47°34' W 122°22'0 0.0
2014-Oct-30 14:33N 47°34' W 122°22'0 0.0
2014-Oct-30 14:33N 47°34' W 122°22'3 2.6
2014-Oct-30 13:33N 47°36' W 122°24'0 7.5
2014-Oct-30 13:33N 47°36' W 122°24'7 6.7
2014-Oct-30 12:33N 47°43' W 122°28'0 7.8
2014-Oct-30 12:33N 47°43' W 122°28'7 7.4
2014-Oct-30 11:33N 47°50' W 122°28'0 7.2
2014-Oct-30 11:33N 47°50' W 122°28'6 6.3
2014-Oct-30 10:33N 47°56' W 122°32'0 6.1
2014-Oct-30 10:32N 47°56' W 122°32'5 5.5
2014-Oct-30 09:33N 47°60' W 122°38'5 5.2
2014-Oct-30 08:33N 48°05' W 122°40'4 4.2
2014-Oct-30 07:31N 48°08' W 122°44'4 3.9
2014-Oct-30 06:28N 48°11' W 122°49'5 6.0
2014-Oct-30 05:33N 48°11' W 122°57'7 6.8
2014-Oct-30 04:33N 48°12' W 123°07'8 8.1
2014-Oct-30 03:33N 48°08' W 123°18'6 6.4
2014-Oct-30 02:33N 48°08' W 123°28'0 0.1
2014-Oct-30 01:33N 48°08' W 123°28'0 0.0
2014-Oct-30 00:33N 48°08' W 123°28'0 0.0
2014-Oct-29 23:33N 48°08' W 123°28'0 0.0
2014-Oct-29 22:33N 48°08' W 123°28'0 0.0
2014-Oct-29 21:33N 48°08' W 123°28'0 0.0
2014-Oct-29 20:33N 48°08' W 123°28'0 0.0
2014-Oct-29 19:33N 48°08' W 123°28'0 0.0
2014-Oct-29 18:33N 48°08' W 123°28'0 0.0
2014-Oct-29 17:33N 48°08' W 123°28'0 0.0
2014-Oct-29 16:33N 48°08' W 123°28'0 0.0
2014-Oct-29 15:33N 48°08' W 123°28'0 0.0
2014-Oct-29 14:33N 48°08' W 123°28'1 0.8
2014-Oct-29 13:33N 48°08' W 123°27'4 3.9
2014-Oct-29 12:33N 48°08' W 123°21'6 6.5
2014-Oct-29 11:33N 48°11' W 123°12'7 7.0
2014-Oct-29 10:32N 48°13' W 123°02'13 9.1
2014-Oct-29 09:06N 48°09' W 122°43'610.2
2014-Oct-29 08:32N 48°04' W 122°38'310.7
2014-Oct-29 08:14N 48°01' W 122°37'710.3
2014-Oct-29 07:33N 47°56' W 122°30'1 8.8
2014-Oct-29 07:29N 47°55' W 122°29'9 9.5
2014-Oct-29 06:33N 47°47' W 122°26'1 8.7
2014-Oct-29 06:29N 47°46' W 122°26'3 9.6
2014-Oct-29 06:09N 47°43' W 122°26'5 9.1
2014-Oct-29 05:33N 47°38' W 122°26'4 4.3
2014-Oct-29 04:33N 47°34' W 122°22'0 0.0
2014-Oct-29 04:28N 47°34' W 122°22'0 0.0
2014-Oct-29 03:33N 47°34' W 122°22'0 0.0
2014-Oct-29 03:28N 47°34' W 122°22'0 0.0
2014-Oct-29 02:33N 47°34' W 122°22'0 0.0
2014-Oct-29 02:29N 47°34' W 122°22'0 0.0
2014-Oct-29 01:33N 47°34' W 122°22'0 0.0
2014-Oct-29 01:28N 47°34' W 122°22'0 0.0
2014-Oct-29 00:33N 47°34' W 122°22'0 0.0
2014-Oct-29 00:28N 47°34' W 122°22'0 0.0
2014-Oct-28 23:17N 47°34' W 122°22'0 0.0
2014-Oct-28 23:16N 47°34' W 122°22'0 0.0
2014-Oct-28 21:59N 47°34' W 122°22'0 0.0
2014-Oct-28 21:33N 47°34' W 122°22'0 0.0
2014-Oct-28 21:29N 47°34' W 122°22'0 0.0
2014-Oct-28 20:33N 47°34' W 122°22'0 0.0
2014-Oct-28 20:28N 47°34' W 122°22'0 0.0
2014-Oct-28 19:33N 47°34' W 122°22'0 0.0
2014-Oct-28 19:28N 47°34' W 122°22'0 0.0
2014-Oct-28 18:33N 47°34' W 122°22'0 0.0
2014-Oct-28 18:31N 47°34' W 122°22'0 0.0
2014-Oct-28 16:54N 47°34' W 122°22'0 0.0
2014-Oct-28 16:33N 47°34' W 122°22'0 0.0
2014-Oct-28 16:30N 47°34' W 122°22'0 0.0
2014-Oct-28 15:33N 47°34' W 122°22'0 0.0
2014-Oct-28 15:30N 47°34' W 122°22'0 0.0
2014-Oct-28 14:33N 47°34' W 122°22'0 0.0
2014-Oct-28 14:29N 47°34' W 122°22'0 0.0
2014-Oct-28 13:33N 47°34' W 122°22'0 0.0
2014-Oct-28 13:29N 47°34' W 122°22'0 0.0
2014-Oct-28 12:33N 47°34' W 122°22'0 0.0
2014-Oct-28 12:29N 47°34' W 122°22'0 0.0
2014-Oct-28 11:33N 47°34' W 122°22'0 0.0
2014-Oct-28 11:29N 47°34' W 122°22'0 0.0
2014-Oct-28 10:33N 47°34' W 122°22'0 0.0
2014-Oct-28 10:29N 47°34' W 122°22'0 0.0
2014-Oct-28 09:33N 47°34' W 122°22'0 0.0
2014-Oct-28 09:29N 47°34' W 122°22'0 0.0
2014-Oct-28 08:33N 47°34' W 122°22'0 0.0
2014-Oct-28 08:29N 47°34' W 122°22'0 0.0
2014-Oct-28 07:33N 47°34' W 122°22'0 0.0
2014-Oct-28 07:29N 47°34' W 122°22'0 0.0
2014-Oct-28 06:33N 47°34' W 122°22'0 0.0
2014-Oct-28 06:28N 47°34' W 122°22'0 0.0
2014-Oct-28 06:23N 47°34' W 122°22'0 0.0
2014-Oct-28 05:33N 47°34' W 122°22'0 0.0
2014-Oct-28 04:33N 47°34' W 122°22'0 0.0
2014-Oct-28 04:28N 47°34' W 122°22'0 0.0
2014-Oct-28 03:34N 47°34' W 122°22'0 0.0
2014-Oct-28 03:33N 47°34' W 122°22'0 0.0
2014-Oct-28 02:33N 47°34' W 122°22'0 0.0
2014-Oct-28 02:33N 47°34' W 122°22'0 0.0
2014-Oct-28 01:33N 47°34' W 122°22'0 0.0
2014-Oct-28 01:33N 47°34' W 122°22'0 0.0
2014-Oct-28 00:33N 47°34' W 122°22'0 0.0
2014-Oct-28 00:33N 47°34' W 122°22'0 0.0
2014-Oct-27 23:33N 47°34' W 122°22'0 0.0
2014-Oct-27 23:33N 47°34' W 122°22'0 0.0
2014-Oct-27 22:36N 47°34' W 122°22'0 0.0
2014-Oct-27 22:33N 47°34' W 122°22'0 0.0
2014-Oct-27 21:33N 47°34' W 122°22'0 0.0
2014-Oct-27 21:31N 47°34' W 122°22'0 0.0
2014-Oct-27 20:33N 47°34' W 122°22'0 0.0
2014-Oct-27 20:31N 47°34' W 122°22'0 0.0
2014-Oct-27 19:33N 47°34' W 122°22'0 0.0
2014-Oct-27 19:30N 47°34' W 122°22'0 0.0
2014-Oct-27 18:33N 47°34' W 122°22'0 0.0
2014-Oct-27 18:30N 47°34' W 122°22'0 0.0
2014-Oct-27 17:33N 47°34' W 122°22'0 0.0
2014-Oct-27 17:31N 47°34' W 122°22'0 0.0
2014-Oct-27 16:33N 47°34' W 122°22'0 0.0
2014-Oct-27 16:31N 47°34' W 122°22'0 0.0
2014-Oct-27 15:33N 47°34' W 122°22'0 0.0
2014-Oct-27 15:30N 47°34' W 122°22'0 0.0
2014-Oct-27 14:33N 47°34' W 122°22'0 0.0
2014-Oct-27 14:30N 47°34' W 122°22'0 0.0
2014-Oct-27 13:33N 47°34' W 122°22'0 0.0
2014-Oct-27 13:30N 47°34' W 122°22'1 1.5
2014-Oct-27 12:34N 47°36' W 122°22'0 3.4
2014-Oct-27 12:30N 47°36' W 122°23'6 6.3
2014-Oct-27 11:34N 47°40' W 122°28'0 6.7
2014-Oct-27 11:30N 47°41' W 122°28'7 7.5
2014-Oct-27 10:33N 47°48' W 122°28'1 7.5
2014-Oct-27 10:29N 47°48' W 122°28'7 7.4
2014-Oct-27 09:34N 47°55' W 122°30'0 6.7
2014-Oct-27 09:30N 47°55' W 122°31'6 6.8
2014-Oct-27 08:33N 47°60' W 122°38'8 5.7
2014-Oct-27 07:05N 48°07' W 122°43'4 4.3
2014-Oct-27 06:07N 48°10' W 122°47'8 4.8
2014-Oct-27 04:24N 48°16' W 122°56'6 7.3
2014-Oct-27 03:33N 48°22' W 123°01'8 7.6
2014-Oct-27 02:33N 48°27' W 123°08'7 7.2
2014-Oct-27 01:33N 48°34' W 123°13'7 7.0
2014-Oct-27 00:33N 48°41' W 123°16'7 7.2
2014-Oct-26 23:33N 48°47' W 123°20'7 6.6
2014-Oct-26 22:30N 48°53' W 123°27'7 7.3
2014-Oct-26 21:31N 48°57' W 123°36'5 5.0
2014-Oct-26 20:32N 48°52' W 123°39'0 0.0
2014-Oct-26 19:32N 48°52' W 123°39'0 0.0
2014-Oct-26 18:33N 48°52' W 123°39'0 0.0
2014-Oct-26 17:34N 48°52' W 123°39'0 0.0
2014-Oct-26 16:33N 48°52' W 123°39'0 0.0
2014-Oct-26 15:33N 48°52' W 123°39'0 0.0
2014-Oct-26 14:34N 48°52' W 123°39'0 0.0
2014-Oct-26 13:33N 48°52' W 123°39'0 0.0
2014-Oct-26 12:34N 48°52' W 123°39'2 1.9
2014-Oct-26 11:33N 48°54' W 123°39'4 4.2
2014-Oct-26 10:33N 48°56' W 123°33'7 7.0
2014-Oct-26 09:33N 48°51' W 123°24'6 6.2
2014-Oct-26 08:33N 48°46' W 123°20'7 7.1
2014-Oct-26 07:33N 48°40' W 123°14'7 6.6
2014-Oct-26 06:33N 48°33' W 123°12'6 6.1
2014-Oct-26 05:34N 48°28' W 123°07'8 7.5
2014-Oct-26 04:31N 48°22' W 122°60'7 7.3
2014-Oct-26 03:33N 48°16' W 122°54'18 8.8
2014-Oct-26 01:33N 48°02' W 122°37'9 8.8
2014-Oct-26 00:33N 47°56' W 122°29'9 8.5
2014-Oct-25 23:33N 47°47' W 122°26'2 7.9
2014-Oct-25 23:19N 47°45' W 122°26'6 8.0
2014-Oct-25 22:33N 47°39' W 122°27'0 7.5
2014-Oct-25 22:29N 47°39' W 122°27'6 6.1
2014-Oct-25 21:33N 47°34' W 122°22'0 0.0
2014-Oct-25 21:29N 47°34' W 122°22'0 0.0
2014-Oct-25 20:34N 47°34' W 122°22'0 0.0
2014-Oct-25 20:29N 47°34' W 122°22'0 0.0
2014-Oct-25 19:33N 47°34' W 122°22'0 0.0
2014-Oct-25 19:29N 47°34' W 122°22'0 0.0
2014-Oct-25 18:34N 47°34' W 122°22'0 0.0
2014-Oct-25 18:29N 47°34' W 122°22'0 0.0
2014-Oct-25 17:26N 47°34' W 122°22'0 0.0
2014-Oct-25 17:24N 47°34' W 122°22'0 0.0
2014-Oct-25 16:32N 47°34' W 122°22'0 0.0
2014-Oct-25 16:28N 47°34' W 122°22'0 0.0
2014-Oct-25 15:33N 47°34' W 122°22'0 0.0
2014-Oct-25 15:29N 47°34' W 122°22'0 0.0
2014-Oct-25 14:33N 47°34' W 122°22'0 0.0
2014-Oct-25 14:33N 47°34' W 122°22'0 0.0
2014-Oct-25 13:33N 47°34' W 122°22'0 0.0
2014-Oct-25 13:33N 47°34' W 122°22'0 0.0
2014-Oct-25 12:33N 47°34' W 122°22'0 0.0
2014-Oct-25 12:32N 47°34' W 122°22'0 0.0
2014-Oct-25 11:33N 47°34' W 122°22'0 0.0
2014-Oct-25 10:33N 47°34' W 122°22'0 0.0
2014-Oct-25 10:33N 47°34' W 122°22'0 0.0
2014-Oct-25 09:33N 47°34' W 122°22'0 0.0
2014-Oct-25 09:33N 47°34' W 122°22'0 0.0
2014-Oct-25 08:33N 47°34' W 122°22'0 0.0
2014-Oct-25 08:33N 47°34' W 122°22'0 0.0
2014-Oct-25 07:33N 47°34' W 122°22'0 0.0
2014-Oct-25 07:33N 47°34' W 122°22'0 0.0
2014-Oct-25 06:33N 47°34' W 122°22'0 0.0
2014-Oct-25 06:33N 47°34' W 122°22'0 0.0
2014-Oct-25 05:57N 47°34' W 122°22'0 0.0
2014-Oct-25 05:33N 47°34' W 122°22'1 1.3
2014-Oct-25 04:33N 47°36' W 122°22'0 0.3
2014-Oct-25 04:32N 47°36' W 122°22'5 5.1
2014-Oct-25 03:33N 47°39' W 122°28'0 4.6
2014-Oct-25 03:32N 47°39' W 122°28'6 6.0
2014-Oct-25 02:33N 47°45' W 122°27'0 5.1
2014-Oct-25 02:32N 47°45' W 122°27'6 6.3
2014-Oct-25 01:33N 47°51' W 122°29'0 5.6
2014-Oct-25 01:32N 47°51' W 122°29'6 6.5
2014-Oct-25 00:33N 47°56' W 122°33'8 7.4
2014-Oct-24 23:27N 48°03' W 122°39'3 0.3
2014-Oct-24 11:32N 48°07' W 122°39'3 6.1
2014-Oct-24 11:02N 48°04' W 122°38'3 6.1
2014-Oct-24 10:33N 48°01' W 122°37'1 5.3
2014-Oct-24 10:17N 47°60' W 122°36'4 5.1
2014-Oct-24 09:33N 47°57' W 122°32'0 5.3
2014-Oct-24 09:28N 47°57' W 122°31'6 6.9
2014-Oct-24 08:33N 47°51' W 122°27'8 8.0
2014-Oct-24 07:33N 47°43' W 122°26'7 7.0
2014-Oct-24 06:33N 47°37' W 122°22'1 6.6
2014-Oct-24 06:22N 47°35' W 122°22'1 2.8
2014-Oct-24 06:02N 47°34' W 122°22'  
2014-Oct-21 22:43N 47°34' W 122°22'0 0.0
2014-Oct-21 22:33N 47°34' W 122°22'0 0.0
2014-Oct-21 22:32N 47°34' W 122°22'2 1.6
2014-Oct-21 21:33N 47°36' W 122°22'0 2.5
2014-Oct-21 21:31N 47°36' W 122°22'6 6.2
2014-Oct-21 20:33N 47°41' W 122°28'0 7.4
2014-Oct-21 20:31N 47°41' W 122°28'7 7.0
2014-Oct-21 19:33N 47°48' W 122°27'0 6.7
2014-Oct-21 19:31N 47°48' W 122°27'7 7.1
2014-Oct-21 18:33N 47°54' W 122°30'0 6.6
2014-Oct-21 18:30N 47°55' W 122°30'7 6.8
2014-Oct-21 17:33N 47°59' W 122°37'1 6.3
2014-Oct-21 17:26N 47°60' W 122°38'5 6.0
2014-Oct-21 16:32N 48°05' W 122°40'7 5.0
2014-Oct-21 15:14N 48°10' W 122°46'4 5.3
2014-Oct-21 14:26N 48°14' W 122°49'  

Dump ship's entire track history